Time;durP1;ratioP1;P1;durP2;ratioP2;P2;SDS_P1;SDS_P2;PMS_P1;PMS_P2;Temp;Humidity;BMP_temperature;BMP_pressure;BME280_temperature;BME280_humidity;BME280_pressure;Samples;Min_cycle;Max_cycle;Signal;HPM_P1;HPM_P2
2023/08/14 00:01:09;;;;;;;16.77;11.52;;;;;;;15.48;nan;101563.81;5024965;28;20042;-74
2023/08/14 00:03:35;;;;;;;17.55;11.88;;;;;;;15.41;nan;101558.75;5024981;28;20033;-74
2023/08/14 00:06:00;;;;;;;17.88;11.55;;;;;;;15.35;nan;101548.44;5025255;28;20042;-75
2023/08/14 00:08:26;;;;;;;13.18;11.15;;;;;;;15.40;nan;101561.41;5024604;28;20055;-74
2023/08/14 00:10:51;;;;;;;16.15;11.35;;;;;;;15.40;nan;101564.03;5026135;28;20013;-74
2023/08/14 00:13:19;;;;;;;13.43;10.90;;;;;;;15.40;nan;101566.66;5024587;28;20085;-75
2023/08/14 00:15:44;;;;;;;16.50;10.70;;;;;;;15.39;nan;101567.59;5026712;28;20025;-75
2023/08/14 00:18:10;;;;;;;14.65;10.93;;;;;;;15.36;nan;101552.78;5025513;28;20041;-74
2023/08/14 00:20:35;;;;;;;13.95;11.13;;;;;;;15.35;nan;101550.22;5025324;28;20072;-74
2023/08/14 00:23:00;;;;;;;15.50;10.73;;;;;;;15.33;nan;101554.66;5023332;28;20037;-74
2023/08/14 00:25:26;;;;;;;13.95;11.43;;;;;;;15.27;nan;101553.09;5025209;28;20030;-74
2023/08/14 00:27:51;;;;;;;18.90;11.80;;;;;;;15.16;nan;101552.56;5015404;28;20025;-74
2023/08/14 00:30:16;;;;;;;15.00;11.90;;;;;;;15.16;nan;101553.41;5027828;28;20499;-74
2023/08/14 00:32:42;;;;;;;14.13;11.77;;;;;;;15.17;nan;101546.38;5022451;28;20026;-74
2023/08/14 00:35:08;;;;;;;17.52;11.38;;;;;;;15.14;nan;101552.63;5022077;28;20050;-74
2023/08/14 00:37:44;;;;;;;16.75;11.80;;;;;;;15.11;nan;101554.47;5025819;28;20104;-75
2023/08/14 00:40:11;;;;;;;16.05;12.27;;;;;;;15.07;nan;101560.72;5023131;28;20052;-74
2023/08/14 00:42:42;;;;;;;15.85;10.80;;;;;;;15.02;nan;101558.25;5025248;28;20108;-74
2023/08/14 00:45:08;;;;;;;16.48;11.52;;;;;;;14.95;nan;101548.84;5024103;28;20112;-74
2023/08/14 00:47:35;;;;;;;14.90;11.10;;;;;;;15.01;nan;101553.00;5024795;28;20029;-75
2023/08/14 00:50:03;;;;;;;17.90;11.60;;;;;;;15.01;nan;101553.00;5024157;28;20474;-74
2023/08/14 00:52:31;;;;;;;18.33;12.07;;;;;;;15.07;nan;101561.56;5023571;28;20033;-74
2023/08/14 00:55:01;;;;;;;15.68;11.35;;;;;;;15.12;nan;101548.31;5025310;28;20438;-74
2023/08/14 00:57:29;;;;;;;17.52;11.30;;;;;;;15.15;nan;101548.22;5023079;28;20075;-75
2023/08/14 00:59:54;;;;;;;14.07;10.88;;;;;;;15.09;nan;101545.78;5024970;28;20048;-74
2023/08/14 01:02:20;;;;;;;17.38;12.10;;;;;;;15.09;nan;101543.16;5023166;28;20473;-74
2023/08/14 01:04:45;;;;;;;18.50;11.75;;;;;;;14.92;nan;101522.66;5024941;28;20026;-74
2023/08/14 01:07:10;;;;;;;15.85;11.68;;;;;;;14.96;nan;101540.03;5024326;28;20026;-74
2023/08/14 01:09:36;;;;;;;15.32;11.05;;;;;;;14.89;nan;101536.75;5021347;28;20076;-74
2023/08/14 01:12:10;;;;;;;15.05;10.98;;;;;;;14.92;nan;101535.81;5021169;28;20022;-74
2023/08/14 01:14:38;;;;;;;12.55;10.73;;;;;;;14.96;nan;101526.91;5020236;28;20033;-74
2023/08/14 01:17:08;;;;;;;15.15;11.55;;;;;;;14.99;nan;101532.06;5024201;28;20021;-74
2023/08/14 01:19:40;;;;;;;15.63;11.30;;;;;;;15.04;nan;101531.91;5022240;28;20112;-74
2023/08/14 01:22:14;;;;;;;13.60;10.63;;;;;;;15.05;nan;101529.25;5012562;28;20041;-74
2023/08/14 01:24:42;;;;;;;15.23;11.27;;;;;;;15.06;nan;101530.13;5021600;28;20037;-74
2023/08/14 01:27:08;;;;;;;17.33;11.02;;;;;;;15.05;nan;101531.03;5011745;28;20062;-74
2023/08/14 01:29:34;;;;;;;14.35;10.63;;;;;;;15.04;nan;101517.06;5023531;28;20026;-74
2023/08/14 01:31:59;;;;;;;14.88;11.40;;;;;;;15.00;nan;101523.28;5022191;28;20431;-75
2023/08/14 01:34:24;;;;;;;15.20;10.73;;;;;;;14.96;nan;101526.91;5023706;28;20041;-74
2023/08/14 01:37:21;;;;;;;16.92;10.45;;;;;;;14.90;nan;101530.56;5022821;28;20018;-74
2023/08/14 01:39:51;;;;;;;14.93;11.07;;;;;;;14.85;nan;101522.00;5017428;28;20036;-74
2023/08/14 01:42:32;;;;;;;13.40;10.93;;;;;;;14.85;nan;101514.13;5022273;28;20025;-74
2023/08/14 01:45:01;;;;;;;13.23;10.48;;;;;;;14.85;nan;101508.88;5023348;28;20034;-74
2023/08/14 01:47:29;;;;;;;14.80;10.82;;;;;;;14.80;nan;101497.66;5012236;28;20175;-75
2023/08/14 01:49:56;;;;;;;15.20;10.90;;;;;;;14.80;nan;101499.41;5024199;28;20372;-74
2023/08/14 01:52:21;;;;;;;14.82;10.57;;;;;;;14.74;nan;101480.31;5022010;28;20026;-74
2023/08/14 01:54:47;;;;;;;16.27;10.45;;;;;;;14.81;nan;101496.72;5024313;28;20040;-75
2023/08/14 01:57:12;;;;;;;13.77;10.50;;;;;;;14.85;nan;101501.00;5023268;28;20048;-74
2023/08/14 01:59:45;;;;;;;16.45;10.70;;;;;;;14.87;nan;101491.28;5023344;28;20033;-75
2023/08/14 02:02:12;;;;;;;15.88;10.32;;;;;;;14.86;nan;101478.22;5023234;28;20034;-75
2023/08/14 02:04:37;;;;;;;11.38;9.93;;;;;;;14.77;nan;101475.88;5022669;28;20068;-74
2023/08/14 02:07:05;;;;;;;13.57;9.55;;;;;;;14.86;nan;101481.72;5026027;28;20026;-74
2023/08/14 02:09:31;;;;;;;11.65;9.90;;;;;;;14.84;nan;101480.88;5018288;28;20104;-74
2023/08/14 02:11:56;;;;;;;15.18;10.30;;;;;;;14.83;nan;101479.19;5021043;28;20068;-74
2023/08/14 02:14:21;;;;;;;12.45;10.05;;;;;;;14.85;nan;101481.78;5019464;28;20474;-74
2023/08/14 02:16:47;;;;;;;11.35;9.88;;;;;;;14.91;nan;101476.31;5022300;28;20485;-74
2023/08/14 02:19:12;;;;;;;12.95;10.60;;;;;;;14.95;nan;101484.06;5023486;28;20033;-74
2023/08/14 02:21:37;;;;;;;15.35;9.98;;;;;;;14.98;nan;101477.84;5019942;28;20076;-74
2023/08/14 02:24:03;;;;;;;13.07;10.00;;;;;;;15.03;nan;101469.81;5026507;28;20529;-74
2023/08/14 02:26:28;;;;;;;12.65;9.93;;;;;;;15.01;nan;101475.13;5019900;28;20488;-74
2023/08/14 02:28:53;;;;;;;12.07;9.65;;;;;;;14.96;nan;101472.63;5025710;28;20025;-74
2023/08/14 02:31:19;;;;;;;12.05;9.32;;;;;;;14.94;nan;101476.22;5019804;28;20045;-74
2023/08/14 02:33:44;;;;;;;12.02;9.77;;;;;;;14.87;nan;101464.19;5024997;28;20060;-74
2023/08/14 02:36:10;;;;;;;14.88;9.65;;;;;;;14.74;nan;101461.94;5020690;28;20116;-74
2023/08/14 02:38:35;;;;;;;15.57;9.48;;;;;;;14.70;nan;101469.97;5019978;28;20444;-74
2023/08/14 02:41:02;;;;;;;15.05;9.80;;;;;;;14.62;nan;101457.09;5027276;28;20029;-74
2023/08/14 02:43:28;;;;;;;12.85;9.20;;;;;;;14.59;nan;101453.69;5019546;28;20037;-74
2023/08/14 02:45:53;;;;;;;12.73;10.02;;;;;;;14.55;nan;101447.69;5026629;28;20139;-74
2023/08/14 02:48:18;;;;;;;13.82;9.90;;;;;;;14.49;nan;101453.09;5020062;28;20044;-74
2023/08/14 02:50:44;;;;;;;11.40;8.60;;;;;;;14.46;nan;101458.41;5024687;28;20030;-74
2023/08/14 02:53:09;;;;;;;12.75;9.43;;;;;;;14.42;nan;101462.03;5022857;28;20034;-74
2023/08/14 02:55:34;;;;;;;13.35;10.23;;;;;;;14.38;nan;101461.25;5022302;28;20026;-74
2023/08/14 02:58:00;;;;;;;11.55;9.02;;;;;;;14.31;nan;101451.84;5023396;28;20021;-74
2023/08/14 03:00:25;;;;;;;13.85;9.35;;;;;;;14.25;nan;101458.13;5022050;28;20127;-74
2023/08/14 03:02:50;;;;;;;11.75;9.48;;;;;;;14.14;nan;101441.00;5022370;28;20021;-74
2023/08/14 03:05:16;;;;;;;12.77;9.75;;;;;;;14.24;nan;101458.19;5022497;28;20036;-75
2023/08/14 03:07:41;;;;;;;13.68;9.45;;;;;;;14.24;nan;101459.03;5022907;28;20061;-74
2023/08/14 03:10:07;;;;;;;14.23;9.15;;;;;;;14.28;nan;101455.41;5022300;28;20128;-74
2023/08/14 03:12:32;;;;;;;11.93;9.23;;;;;;;14.28;nan;101455.41;5017439;28;20030;-74
2023/08/14 03:14:57;;;;;;;13.02;9.32;;;;;;;14.26;nan;101457.25;5027064;28;20037;-74
2023/08/14 03:17:23;;;;;;;13.23;10.30;;;;;;;14.19;nan;101455.72;5024568;28;20376;-74
2023/08/14 03:19:48;;;;;;;11.90;9.27;;;;;;;14.22;nan;101466.09;5025556;28;20038;-74
2023/08/14 03:22:13;;;;;;;11.98;9.90;;;;;;;14.21;nan;101453.88;5026428;28;20026;-74
2023/08/14 03:24:39;;;;;;;13.18;9.32;;;;;;;14.08;nan;101436.78;5024127;28;20026;-74
2023/08/14 03:27:04;;;;;;;14.10;10.15;;;;;;;14.22;nan;101462.59;5026759;28;20076;-74
2023/08/14 03:29:29;;;;;;;15.23;9.70;;;;;;;14.17;nan;101447.00;5026322;28;20044;-74
2023/08/14 03:31:55;;;;;;;13.30;10.25;;;;;;;14.24;nan;101453.78;5023632;28;20477;-74
2023/08/14 03:34:20;;;;;;;12.02;10.57;;;;;;;14.24;nan;101455.56;5027804;28;20121;-74
2023/08/14 03:36:45;;;;;;;13.27;10.20;;;;;;;14.23;nan;101457.31;5023509;28;20394;-74
2023/08/14 03:39:11;;;;;;;13.05;10.77;;;;;;;14.16;nan;101455.78;5024068;28;20072;-74
2023/08/14 03:41:36;;;;;;;16.20;9.60;;;;;;;14.17;nan;101454.88;5028712;28;20072;-74
2023/08/14 03:44:02;;;;;;;10.80;9.70;;;;;;;14.15;nan;101467.16;5022466;28;20492;-74
2023/08/14 03:46:27;;;;;;;12.50;10.15;;;;;;;14.15;nan;101459.28;5030203;28;20037;-75
2023/08/14 03:48:52;;;;;;;13.98;10.70;;;;;;;14.06;nan;101451.72;5023227;28;20026;-74
2023/08/14 03:51:18;;;;;;;12.32;10.43;;;;;;;14.06;nan;101454.34;5029629;28;20441;-75
2023/08/14 03:53:43;;;;;;;16.13;10.60;;;;;;;14.09;nan;101467.34;5023458;28;20026;-74
2023/08/14 03:56:08;;;;;;;13.90;10.45;;;;;;;14.07;nan;101465.69;5030272;28;20477;-74
2023/08/14 03:58:34;;;;;;;12.70;10.32;;;;;;;14.06;nan;101459.59;5022080;28;20056;-75
2023/08/14 04:00:59;;;;;;;13.30;10.70;;;;;;;14.04;nan;101456.97;5028822;28;20026;-74
2023/08/14 04:03:24;;;;;;;12.50;10.38;;;;;;;13.99;nan;101456.25;5024459;28;20025;-74
2023/08/14 04:05:55;;;;;;;14.93;9.52;;;;;;;14.02;nan;101457.91;5021950;28;20390;-74
2023/08/14 04:08:20;;;;;;;11.63;10.15;;;;;;;14.02;nan;101463.16;5027499;28;20026;-74
2023/08/14 04:10:53;;;;;;;13.23;9.98;;;;;;;13.98;nan;101451.06;5023180;28;20396;-74
2023/08/14 04:13:19;;;;;;;17.90;11.13;;;;;;;14.00;nan;101446.63;5022397;28;20038;-74
2023/08/14 04:15:44;;;;;;;14.60;10.15;;;;;;;14.00;nan;101449.25;5024036;28;20032;-75
2023/08/14 04:18:10;;;;;;;14.95;10.88;;;;;;;14.01;nan;101440.47;5024595;28;20075;-74
2023/08/14 04:20:35;;;;;;;13.82;10.63;;;;;;;14.02;nan;101444.81;5025626;28;20033;-74
2023/08/14 04:23:00;;;;;;;16.10;10.18;;;;;;;13.97;nan;101426.59;5023251;28;20040;-74
2023/08/14 04:25:26;;;;;;;14.27;10.55;;;;;;;14.07;nan;101436.84;5024545;28;20033;-74
2023/08/14 04:27:51;;;;;;;14.85;10.80;;;;;;;14.09;nan;101441.09;5022727;28;20025;-74
2023/08/14 04:30:16;;;;;;;14.00;10.45;;;;;;;14.09;nan;101433.25;5025153;28;20038;-74
2023/08/14 04:32:42;;;;;;;15.15;10.10;;;;;;;14.13;nan;101434.03;5024437;28;20033;-74
2023/08/14 04:35:08;;;;;;;12.63;9.75;;;;;;;14.14;nan;101426.13;5023076;28;20081;-74
2023/08/14 04:37:33;;;;;;;13.38;10.07;;;;;;;14.09;nan;101420.13;5025531;28;20026;-74
2023/08/14 04:39:59;;;;;;;16.58;10.77;;;;;;;14.14;nan;101422.66;5024980;28;20453;-74
2023/08/14 04:42:24;;;;;;;12.52;10.57;;;;;;;14.22;nan;101426.78;5023849;28;20029;-74
2023/08/14 04:44:49;;;;;;;14.48;10.18;;;;;;;14.27;nan;101424.00;5025235;28;20033;-74
2023/08/14 04:47:14;;;;;;;11.95;9.48;;;;;;;14.19;nan;101399.75;5024005;28;20101;-74
2023/08/14 04:49:40;;;;;;;11.90;9.63;;;;;;;14.24;nan;101411.84;5024849;28;20112;-75
2023/08/14 04:52:05;;;;;;;15.32;10.80;;;;;;;14.31;nan;101423.00;5025410;28;20056;-74
2023/08/14 04:54:31;;;;;;;12.85;10.75;;;;;;;14.32;nan;101418.59;5023523;28;20030;-74
2023/08/14 04:56:57;;;;;;;14.70;9.70;;;;;;;14.31;nan;101411.66;5026916;28;20026;-74
2023/08/14 04:59:23;;;;;;;11.88;10.48;;;;;;;14.33;nan;101396.75;5022390;28;20097;-74
2023/08/14 05:01:48;;;;;;;15.27;10.43;;;;;;;14.42;nan;101396.44;5028157;28;20030;-74
2023/08/14 05:04:13;;;;;;;13.73;10.05;;;;;;;14.50;nan;101397.06;5021141;28;20041;-74
2023/08/14 05:06:39;;;;;;;11.65;9.68;;;;;;;14.52;nan;101396.16;5023887;28;20496;-74
2023/08/14 05:09:04;;;;;;;12.90;9.57;;;;;;;14.57;nan;101390.75;5024101;28;20033;-74
2023/08/14 05:11:30;;;;;;;12.30;9.70;;;;;;;14.79;nan;101405.84;5021529;28;20064;-74
2023/08/14 05:13:55;;;;;;;14.43;10.02;;;;;;;14.89;nan;101397.59;5023988;28;20018;-74
2023/08/14 05:16:22;;;;;;;11.35;10.15;;;;;;;14.99;nan;101391.16;5020603;28;20033;-74
2023/08/14 05:18:47;;;;;;;11.60;9.57;;;;;;;15.15;nan;101391.50;5027334;28;20104;-75
2023/08/14 05:21:12;;;;;;;11.43;9.05;;;;;;;15.29;nan;101398.03;5021170;28;20133;-74
2023/08/14 05:23:37;;;;;;;12.68;9.18;;;;;;;15.41;nan;101395.00;5026972;28;20033;-74
2023/08/14 05:26:03;;;;;;;12.25;9.55;;;;;;;15.52;nan;101403.34;5021550;28;20125;-74
2023/08/14 05:28:28;;;;;;;12.02;9.20;;;;;;;15.57;nan;101393.56;5024874;28;20650;-74
2023/08/14 05:30:53;;;;;;;14.40;9.75;;;;;;;15.64;nan;101395.03;5022589;28;20047;-74
2023/08/14 05:33:18;;;;;;;11.73;9.55;;;;;;;15.69;nan;101405.41;5022535;28;20056;-74
2023/08/14 05:35:44;;;;;;;13.20;9.07;;;;;;;15.73;nan;101401.78;5023788;28;20021;-74
2023/08/14 05:38:09;;;;;;;15.15;9.65;;;;;;;15.76;nan;101398.16;5020932;28;20029;-74
2023/08/14 05:40:34;;;;;;;13.65;9.50;;;;;;;15.82;nan;101411.09;5026069;28;20392;-74
2023/08/14 05:43:06;;;;;;;12.88;9.45;;;;;;;15.86;nan;101416.19;5023933;28;20064;-74
2023/08/14 05:45:36;;;;;;;10.35;9.18;;;;;;;15.91;nan;101419.50;5023592;28;20029;-74
2023/08/14 05:48:03;;;;;;;11.25;9.48;;;;;;;15.95;nan;101414.13;5024332;28;20017;-75
2023/08/14 05:50:29;;;;;;;13.32;10.30;;;;;;;15.95;nan;101415.00;5021153;28;20033;-75
2023/08/14 05:52:56;;;;;;;12.88;10.25;;;;;;;16.00;nan;101423.59;5023486;28;20148;-74
2023/08/14 05:55:21;;;;;;;12.40;10.55;;;;;;;15.99;nan;101426.25;5023211;28;20033;-74
2023/08/14 05:57:47;;;;;;;14.10;10.68;;;;;;;16.04;nan;101430.44;5023309;28;20029;-74
2023/08/14 06:00:13;;;;;;;15.35;10.73;;;;;;;16.05;nan;101432.13;5023520;28;20104;-74
2023/08/14 06:02:38;;;;;;;16.50;11.10;;;;;;;16.03;nan;101433.13;5023550;28;20487;-75
2023/08/14 06:05:04;;;;;;;17.73;10.55;;;;;;;16.07;nan;101432.09;5023007;28;20063;-74
2023/08/14 06:07:29;;;;;;;16.08;11.10;;;;;;;16.10;nan;101445.13;5023260;28;20113;-74
2023/08/14 06:09:54;;;;;;;15.73;11.10;;;;;;;16.14;nan;101447.59;5024111;28;20021;-74
2023/08/14 06:12:20;;;;;;;13.32;10.98;;;;;;;16.19;nan;101452.69;5018147;28;20524;-75
2023/08/14 06:14:45;;;;;;;15.02;11.23;;;;;;;16.22;nan;101449.06;5022273;28;20037;-74
2023/08/14 06:17:10;;;;;;;15.75;10.15;;;;;;;16.25;nan;101439.31;5023220;28;20021;-74
2023/08/14 06:19:36;;;;;;;13.57;9.85;;;;;;;16.26;nan;101446.28;5020389;28;20037;-74
2023/08/14 06:22:01;;;;;;;19.45;10.45;;;;;;;16.27;nan;101436.63;5023782;28;20036;-74
2023/08/14 06:24:29;;;;;;;17.63;10.68;;;;;;;16.31;nan;101432.94;5022628;28;20034;-74
2023/08/14 06:26:55;;;;;;;19.17;10.82;;;;;;;16.40;nan;101427.34;5021622;28;20030;-74
2023/08/14 06:29:21;;;;;;;12.15;9.57;;;;;;;16.58;nan;101410.84;5024425;28;20065;-74
2023/08/14 06:31:46;;;;;;;15.68;10.43;;;;;;;16.92;nan;101422.69;5020609;28;20056;-75
2023/08/14 06:34:11;;;;;;;14.10;9.85;;;;;;;17.15;nan;101407.72;5025071;28;20449;-74
2023/08/14 06:36:37;;;;;;;12.88;8.57;;;;;;;17.52;nan;101417.53;5020241;28;20040;-75
2023/08/14 06:39:02;;;;;;;19.23;9.38;;;;;;;17.78;nan;101411.16;5021376;28;20029;-74
2023/08/14 06:41:28;;;;;;;15.65;8.70;;;;;;;17.89;nan;101414.19;5025553;28;20034;-74
2023/08/14 06:43:53;;;;;;;13.63;8.80;;;;;;;17.78;nan;101406.72;5020331;28;20433;-74
2023/08/14 06:46:18;;;;;;;13.27;8.57;;;;;;;17.65;nan;101399.41;5027636;28;20537;-74
2023/08/14 06:48:44;;;;;;;12.40;8.13;;;;;;;17.58;nan;101405.88;5025218;28;20525;-75
2023/08/14 06:51:09;;;;;;;15.10;7.85;;;;;;;17.46;nan;101410.75;5034521;28;20055;-74
2023/08/14 06:53:34;;;;;;;9.63;6.78;;;;;;;17.52;nan;101420.16;5026659;28;20080;-74
2023/08/14 06:56:00;;;;;;;13.55;8.02;;;;;;;17.80;nan;101409.31;5032316;28;20453;-74
2023/08/14 06:58:26;;;;;;;14.57;7.35;;;;;;;18.22;nan;101401.22;5027697;28;20374;-74
2023/08/14 07:00:51;;;;;;;9.73;7.10;;;;;;;18.61;nan;101407.34;5031329;28;20460;-75
2023/08/14 07:03:16;;;;;;;14.27;7.13;;;;;;;18.92;nan;101410.22;5028597;28;20092;-75
2023/08/14 07:05:42;;;;;;;13.73;6.85;;;;;;;19.01;nan;101406.25;5026895;28;20029;-74
2023/08/14 07:08:07;;;;;;;14.52;6.25;;;;;;;19.20;nan;101403.56;5028740;28;20033;-75
2023/08/14 07:10:32;;;;;;;12.95;6.10;;;;;;;19.16;nan;101391.41;5028115;28;20119;-75
2023/08/14 07:12:58;;;;;;;10.88;5.70;;;;;;;19.14;nan;101411.78;5026215;28;20049;-75
2023/08/14 07:15:23;;;;;;;14.43;5.82;;;;;;;19.02;nan;101409.75;5028155;28;20025;-75
2023/08/14 07:17:48;;;;;;;13.38;5.25;;;;;;;18.97;nan;101406.50;5027189;28;20025;-75
2023/08/14 07:20:13;;;;;;;10.10;5.22;;;;;;;18.82;nan;101401.03;5028996;28;20427;-75
2023/08/14 07:22:39;;;;;;;9.00;5.43;;;;;;;18.73;nan;101406.75;5026234;28;20029;-75
2023/08/14 07:25:05;;;;;;;12.45;4.80;;;;;;;18.67;nan;101409.66;5029280;28;20033;-75
2023/08/14 07:27:31;;;;;;;7.05;4.70;;;;;;;18.58;nan;101412.75;5028598;28;20076;-75
2023/08/14 07:29:56;;;;;;;8.73;4.90;;;;;;;18.54;nan;101421.72;5027040;28;20385;-75
2023/08/14 07:32:21;;;;;;;7.32;4.35;;;;;;;18.38;nan;101419.84;5029047;28;20025;-75
2023/08/14 07:34:48;;;;;;;11.52;4.95;;;;;;;18.26;nan;101428.31;5027651;28;20397;-75
2023/08/14 07:37:13;;;;;;;12.95;5.28;;;;;;;18.07;nan;101432.72;5027944;28;20025;-75
2023/08/14 07:39:39;;;;;;;12.05;4.97;;;;;;;18.02;nan;101425.88;5029390;28;20020;-75
2023/08/14 07:42:04;;;;;;;10.25;5.07;;;;;;;18.07;nan;101440.63;5028833;28;20025;-75
2023/08/14 07:44:29;;;;;;;9.95;5.10;;;;;;;18.12;nan;101430.75;5027955;28;20491;-75
2023/08/14 07:46:55;;;;;;;8.90;4.80;;;;;;;18.26;nan;101433.59;5029567;28;20034;-74
2023/08/14 07:49:20;;;;;;;9.32;5.13;;;;;;;18.33;nan;101413.91;5027983;28;20156;-75
2023/08/14 07:51:45;;;;;;;10.02;4.63;;;;;;;18.50;nan;101421.03;5031239;28;20029;-75
2023/08/14 07:54:11;;;;;;;11.15;4.95;;;;;;;18.54;nan;101408.53;5025648;28;20032;-75
2023/08/14 07:56:36;;;;;;;9.95;4.93;;;;;;;18.73;nan;101422.59;5033995;28;20026;-75
2023/08/14 07:59:02;;;;;;;7.05;4.03;;;;;;;18.86;nan;101415.78;5022921;28;20119;-75
2023/08/14 08:01:27;;;;;;;6.25;3.92;;;;;;;18.97;nan;101430.28;5023838;28;20496;-74
2023/08/14 08:03:53;;;;;;;6.50;3.83;;;;;;;19.05;nan;101423.66;5027036;28;20491;-75
2023/08/14 08:06:19;;;;;;;8.63;3.58;;;;;;;19.11;nan;101423.38;5021963;28;20040;-75
2023/08/14 08:08:44;;;;;;;10.18;3.83;;;;;;;19.14;nan;101432.94;5028531;28;20030;-74
2023/08/14 08:11:09;;;;;;;9.00;3.13;;;;;;;19.23;nan;101416.63;5022293;28;20098;-75
2023/08/14 08:13:35;;;;;;;9.32;3.42;;;;;;;19.37;nan;101418.56;5026108;28;20056;-75
2023/08/14 08:16:00;;;;;;;6.45;2.67;;;;;;;19.45;nan;101410.22;5022576;28;20141;-75
2023/08/14 08:18:25;;;;;;;12.35;3.20;;;;;;;19.54;nan;101405.31;5026410;28;20034;-76
2023/08/14 08:20:51;;;;;;;8.68;2.70;;;;;;;19.71;nan;101425.63;5023445;28;20021;-75
2023/08/14 08:23:16;;;;;;;6.70;2.70;;;;;;;19.80;nan;101411.91;5025218;28;20041;-75
2023/08/14 08:25:41;;;;;;;7.28;2.63;;;;;;;19.87;nan;101413.28;5024820;28;20520;-75
2023/08/14 08:28:07;;;;;;;8.20;2.65;;;;;;;19.94;nan;101410.31;5023384;28;20108;-75
2023/08/14 08:30:32;;;;;;;4.38;2.50;;;;;;;20.00;nan;101399.41;5025238;28;20034;-74
2023/08/14 08:32:57;;;;;;;7.07;2.85;;;;;;;20.08;nan;101395.41;5022646;28;20080;-75
2023/08/14 08:35:23;;;;;;;5.00;2.33;;;;;;;20.27;nan;101410.28;5024939;28;20108;-74
2023/08/14 08:37:48;;;;;;;4.38;2.22;;;;;;;20.35;nan;101397.47;5025540;28;20021;-75
2023/08/14 08:40:13;;;;;;;11.50;2.50;;;;;;;20.38;nan;101394.66;5023295;28;20034;-75
2023/08/14 08:42:39;;;;;;;7.25;2.67;;;;;;;20.53;nan;101391.16;5025282;28;20026;-75
2023/08/14 08:45:07;;;;;;;5.03;2.35;;;;;;;20.62;nan;101397.75;5024473;28;20059;-74
2023/08/14 08:47:37;;;;;;;5.03;2.00;;;;;;;20.71;nan;101399.88;5024409;28;20460;-75
2023/08/14 08:50:03;;;;;;;4.97;2.20;;;;;;;20.86;nan;101399.94;5025421;28;20057;-75
2023/08/14 08:52:30;;;;;;;5.32;2.13;;;;;;;20.93;nan;101391.56;5024443;28;20025;-75
2023/08/14 08:55:00;;;;;;;6.72;2.92;;;;;;;21.11;nan;101389.63;5024786;28;20025;-75
2023/08/14 08:57:25;;;;;;;4.90;2.47;;;;;;;21.20;nan;101385.56;5024280;28;20029;-75
2023/08/14 08:59:52;;;;;;;6.03;2.33;;;;;;;21.22;nan;101376.59;5025389;28;20029;-75
2023/08/14 09:02:17;;;;;;;5.95;2.67;;;;;;;21.28;nan;101389.44;5021029;28;20445;-75
2023/08/14 09:04:43;;;;;;;7.25;2.30;;;;;;;21.36;nan;101377.59;5024926;28;20029;-75
2023/08/14 09:07:08;;;;;;;9.73;2.97;;;;;;;21.49;nan;101368.78;5024433;28;20033;-75
2023/08/14 09:09:34;;;;;;;6.63;2.40;;;;;;;21.65;nan;101383.78;5021965;28;20022;-74
2023/08/14 09:11:59;;;;;;;4.18;2.25;;;;;;;21.77;nan;101380.34;5024476;28;20032;-75
2023/08/14 09:14:24;;;;;;;5.20;2.15;;;;;;;21.85;nan;101382.53;5021470;28;20049;-75
2023/08/14 09:16:53;;;;;;;6.75;2.28;;;;;;;21.95;nan;101383.69;5023692;28;20366;-75
2023/08/14 09:19:18;;;;;;;4.18;2.08;;;;;;;21.97;nan;101381.75;5023861;28;20037;-75
2023/08/14 09:21:45;;;;;;;5.68;2.33;;;;;;;22.14;nan;101375.41;5021931;28;20022;-75
2023/08/14 09:24:12;;;;;;;7.18;2.85;;;;;;;22.28;nan;101375.41;5025858;28;20037;-74
2023/08/14 09:26:37;;;;;;;5.30;2.33;;;;;;;22.20;nan;101373.25;5021233;28;20030;-75
2023/08/14 09:29:03;;;;;;;4.35;2.30;;;;;;;22.32;nan;101373.41;5026783;28;20037;-75
2023/08/14 09:31:31;;;;;;;5.97;2.38;;;;;;;22.40;nan;101395.88;5020775;28;20064;-75
2023/08/14 09:33:56;;;;;;;5.25;1.95;;;;;;;22.40;nan;101395.03;5027659;28;20042;-74
2023/08/14 09:36:22;;;;;;;6.25;2.10;;;;;;;22.51;nan;101403.13;5019829;28;20113;-75
2023/08/14 09:38:50;;;;;;;3.63;1.95;;;;;;;22.55;nan;101394.00;5021025;28;20105;-75
2023/08/14 09:41:16;;;;;;;4.40;1.90;;;;;;;22.68;nan;101405.53;5028250;28;20030;-75
2023/08/14 09:43:43;;;;;;;6.13;2.20;;;;;;;22.81;nan;101402.09;5020440;28;20040;-74
2023/08/14 09:46:11;;;;;;;6.53;2.10;;;;;;;22.94;nan;101408.31;5028530;28;20083;-75
2023/08/14 09:48:48;;;;;;;5.53;2.45;;;;;;;23.03;nan;101399.75;5020715;28;20017;-75
2023/08/14 09:51:15;;;;;;;5.70;2.40;;;;;;;22.93;nan;101390.69;5027755;28;20026;-75
2023/08/14 09:53:47;;;;;;;4.10;1.80;;;;;;;23.09;nan;101386.03;5020550;28;20032;-75
2023/08/14 09:56:13;;;;;;;3.80;2.00;;;;;;;22.80;nan;101392.41;5020282;28;20030;-75
2023/08/14 09:58:39;;;;;;;3.78;1.80;;;;;;;22.71;nan;101393.00;5025266;28;20497;-74
2023/08/14 10:01:06;;;;;;;7.13;2.40;;;;;;;22.62;nan;101386.50;5020813;28;20029;-75
2023/08/14 10:03:33;;;;;;;6.95;2.42;;;;;;;22.70;nan;101380.69;5026227;28;20082;-75
2023/08/14 10:06:01;;;;;;;6.28;2.20;;;;;;;22.81;nan;101378.16;5019819;28;20026;-75
2023/08/14 10:08:29;;;;;;;5.40;2.00;;;;;;;22.97;nan;101378.88;5025837;28;20405;-75
2023/08/14 10:10:55;;;;;;;5.30;2.20;;;;;;;23.07;nan;101360.50;5020041;28;20022;-75
2023/08/14 10:13:21;;;;;;;5.97;2.05;;;;;;;23.01;nan;101355.59;5024140;28;20378;-75
2023/08/14 10:15:49;;;;;;;4.88;1.92;;;;;;;23.08;nan;101348.88;5021261;28;20029;-75
2023/08/14 10:18:16;;;;;;;4.10;2.00;;;;;;;23.27;nan;101348.50;5022592;28;20038;-75
2023/08/14 10:20:44;;;;;;;5.60;2.20;;;;;;;23.47;nan;101329.31;5022259;28;20426;-75
2023/08/14 10:23:11;;;;;;;7.25;2.28;;;;;;;23.62;nan;101338.06;5021847;28;20087;-75
2023/08/14 10:25:38;;;;;;;5.45;1.90;;;;;;;23.73;nan;101334.66;5022954;28;20037;-75
2023/08/14 10:28:04;;;;;;;4.00;2.03;;;;;;;23.79;nan;101335.06;5021708;28;20021;-75
2023/08/14 10:30:31;;;;;;;4.90;2.20;;;;;;;23.88;nan;101325.59;5022863;28;20044;-75
2023/08/14 10:32:56;;;;;;;5.95;2.42;;;;;;;23.89;nan;101313.97;5020566;28;20032;-76
2023/08/14 10:35:25;;;;;;;5.75;2.10;;;;;;;24.00;nan;101323.84;5022829;28;20116;-75
2023/08/14 10:37:52;;;;;;;7.25;2.15;;;;;;;23.94;nan;101317.16;5023616;28;20010;-75
2023/08/14 10:40:19;;;;;;;4.63;2.00;;;;;;;24.01;nan;101313.09;5021557;28;20108;-76
2023/08/14 10:42:46;;;;;;;5.82;2.20;;;;;;;24.20;nan;101314.41;5023318;28;20022;-75
2023/08/14 10:45:15;;;;;;;7.43;2.30;;;;;;;24.30;nan;101313.63;5022093;28;20068;-75
2023/08/14 10:47:42;;;;;;;5.90;2.17;;;;;;;24.43;nan;101318.09;5022543;28;20071;-75
2023/08/14 10:50:18;;;;;;;4.70;2.17;;;;;;;24.52;nan;101306.72;5022479;28;20061;-75
2023/08/14 10:52:46;;;;;;;3.65;2.15;;;;;;;24.62;nan;101318.38;5023546;28;20468;-75
2023/08/14 10:55:24;;;;;;;5.20;2.00;;;;;;;24.77;nan;101316.38;5021917;28;20025;-76
2023/08/14 10:57:50;;;;;;;5.93;2.35;;;;;;;24.91;nan;101318.84;5023463;28;20035;-76
2023/08/14 11:00:23;;;;;;;4.97;2.13;;;;;;;24.92;nan;101312.56;5021680;28;20026;-75
2023/08/14 11:03:04;;;;;;;3.92;1.90;;;;;;;24.98;nan;101314.75;5015375;28;20064;-75
2023/08/14 11:05:37;;;;;;;4.50;2.05;;;;;;;25.10;nan;101322.78;5020885;28;20543;-76
2023/08/14 11:08:04;;;;;;;5.15;2.30;;;;;;;25.26;nan;101322.47;5022641;28;20022;-75
2023/08/14 11:10:31;;;;;;;5.85;2.20;;;;;;;25.16;nan;101325.00;5021410;28;20096;-75
2023/08/14 11:12:57;;;;;;;5.90;2.47;;;;;;;25.22;nan;101325.38;5021576;28;20083;-75
2023/08/14 11:15:23;;;;;;;6.97;2.13;;;;;;;25.34;nan;101320.03;5021897;28;20461;-76
2023/08/14 11:17:49;;;;;;;4.53;2.13;;;;;;;25.38;nan;101322.38;5011028;28;20071;-77
2023/08/14 11:20:15;;;;;;;6.05;2.50;;;;;;;25.38;nan;101311.69;5022444;28;20461;-76
2023/08/14 11:22:46;;;;;;;4.40;2.05;;;;;;;25.72;nan;101318.84;5005403;28;20019;-76
2023/08/14 11:25:13;;;;;;;7.20;2.28;;;;;;;25.76;nan;101302.44;5015952;28;20037;-76
2023/08/14 11:27:39;;;;;;;4.68;2.10;;;;;;;25.89;nan;101316.53;5009405;28;20041;-76
2023/08/14 11:30:05;;;;;;;4.70;1.98;;;;;;;25.95;nan;101303.66;5021754;28;20030;-76